Time;durP1;ratioP1;P1;durP2;ratioP2;P2;SDS_P1;SDS_P2;PMS_P1;PMS_P2;Temp;Humidity;BMP_temperature;BMP_pressure;BME280_temperature;BME280_humidity;BME280_pressure;Samples;Min_cycle;Max_cycle;Signal;HPM_P1;HPM_P2
2022/11/22 00:00:39;;;;;;;5.93;3.70;;;2.60;99.90;;;;;;5092036;28;20055;-83
2022/11/22 00:03:04;;;;;;;4.47;3.40;;;2.60;99.90;;;;;;5091964;28;20492;-83
2022/11/22 00:05:30;;;;;;;4.67;3.43;;;2.60;99.90;;;;;;5091954;28;20111;-83
2022/11/22 00:07:55;;;;;;;5.53;3.47;;;2.60;99.90;;;;;;5091798;28;20461;-82
2022/11/22 00:10:21;;;;;;;5.63;3.70;;;2.70;99.90;;;;;;5091969;28;20051;-83
2022/11/22 00:12:46;;;;;;;6.50;3.50;;;2.60;99.90;;;;;;5091780;28;20130;-82
2022/11/22 00:15:12;;;;;;;6.07;2.97;;;2.70;99.90;;;;;;5073576;28;20109;-83
2022/11/22 00:17:38;;;;;;;4.67;3.30;;;2.60;99.90;;;;;;5091852;28;20043;-83
2022/11/22 00:20:06;;;;;;;4.60;2.90;;;2.70;99.90;;;;;;5091800;28;20385;-82
2022/11/22 00:22:32;;;;;;;4.73;3.20;;;2.70;99.90;;;;;;5091679;28;20024;-83
2022/11/22 00:24:58;;;;;;;5.80;2.97;;;2.70;99.90;;;;;;5091801;28;20036;-83
2022/11/22 00:27:24;;;;;;;6.20;3.50;;;2.70;99.90;;;;;;5073123;28;20126;-83
2022/11/22 00:29:50;;;;;;;5.40;3.20;;;2.70;99.90;;;;;;5091803;28;20039;-83
2022/11/22 00:32:15;;;;;;;4.37;3.27;;;2.70;99.90;;;;;;5091490;28;20027;-82
2022/11/22 00:34:41;;;;;;;5.27;2.80;;;2.70;99.90;;;;;;5073055;28;20111;-83
2022/11/22 00:37:07;;;;;;;6.30;2.90;;;2.70;99.90;;;;;;5091509;28;20082;-82
2022/11/22 00:39:32;;;;;;;4.03;3.10;;;2.70;99.90;;;;;;5091299;28;20107;-83
2022/11/22 00:41:58;;;;;;;7.40;3.70;;;2.70;99.90;;;;;;5091140;28;20081;-83
2022/11/22 00:44:23;;;;;;;4.57;3.10;;;2.70;99.90;;;;;;5091348;28;20020;-82
2022/11/22 00:46:49;;;;;;;4.10;3.10;;;2.70;99.90;;;;;;5091286;28;20465;-83
2022/11/22 00:49:15;;;;;;;5.37;3.57;;;2.70;99.90;;;;;;5091085;28;20056;-83
2022/11/22 00:51:40;;;;;;;5.40;3.40;;;2.70;99.90;;;;;;5090886;28;20503;-83
2022/11/22 00:54:06;;;;;;;5.83;3.20;;;2.70;99.90;;;;;;5091187;28;20074;-83
2022/11/22 00:56:32;;;;;;;5.23;3.27;;;2.70;99.90;;;;;;5090857;28;20461;-83
2022/11/22 00:58:58;;;;;;;5.17;3.80;;;2.70;99.90;;;;;;5091264;28;20024;-83
2022/11/22 01:01:24;;;;;;;4.87;3.30;;;2.70;99.90;;;;;;5091175;28;20908;-83
2022/11/22 01:03:49;;;;;;;7.13;3.90;;;2.80;99.90;;;;;;5091219;28;20032;-83
2022/11/22 01:06:15;;;;;;;4.50;3.23;;;2.80;99.90;;;;;;5090744;28;20032;-83
2022/11/22 01:08:41;;;;;;;5.80;3.13;;;2.80;99.90;;;;;;5090959;28;20080;-83
2022/11/22 01:11:07;;;;;;;5.83;3.30;;;2.80;99.90;;;;;;5089484;28;20036;-83
2022/11/22 01:13:33;;;;;;;5.07;3.43;;;2.80;99.90;;;;;;5090872;28;20032;-83
2022/11/22 01:16:04;;;;;;;5.53;3.13;;;2.80;99.90;;;;;;5091214;28;20100;-82
2022/11/22 01:18:30;;;;;;;5.03;3.10;;;2.90;99.90;;;;;;5090627;28;20020;-82
2022/11/22 01:20:56;;;;;;;5.67;3.43;;;2.90;99.90;;;;;;5090804;28;20054;-82
2022/11/22 01:23:21;;;;;;;4.77;3.03;;;2.90;99.90;;;;;;5072780;28;20028;-83
2022/11/22 01:25:47;;;;;;;4.07;2.83;;;3.00;99.90;;;;;;5091119;28;20429;-83
2022/11/22 01:28:13;;;;;;;5.07;3.03;;;3.10;99.90;;;;;;5090785;28;20377;-84
2022/11/22 01:30:40;;;;;;;6.73;3.60;;;3.10;99.90;;;;;;5091040;28;20039;-84
2022/11/22 01:33:06;;;;;;;4.53;2.80;;;3.10;99.90;;;;;;5090740;28;20046;-84
2022/11/22 01:35:31;;;;;;;6.37;3.07;;;3.20;99.90;;;;;;5090437;28;20040;-83
2022/11/22 01:37:57;;;;;;;4.10;3.07;;;3.20;99.90;;;;;;5090311;28;20023;-83
2022/11/22 01:40:22;;;;;;;4.07;3.00;;;3.30;99.90;;;;;;5090515;28;20040;-83
2022/11/22 01:42:52;;;;;;;5.23;3.27;;;3.30;99.90;;;;;;5090434;28;20036;-83
2022/11/22 01:45:30;;;;;;;6.47;3.27;;;3.30;99.90;;;;;;5090451;28;20526;-83
2022/11/22 01:48:45;;;;;;;5.13;3.20;;;3.40;99.90;;;;;;5090275;28;20514;-83
2022/11/22 01:51:22;;;;;;;5.33;3.40;;;3.40;99.90;;;;;;5084100;28;20126;-83
2022/11/22 01:53:48;;;;;;;4.50;3.00;;;3.40;99.90;;;;;;5090625;28;20092;-83
2022/11/22 01:56:16;;;;;;;4.93;2.80;;;3.40;99.90;;;;;;5090573;28;20028;-83
2022/11/22 01:58:45;;;;;;;5.47;3.30;;;3.50;99.90;;;;;;5090355;28;20044;-83
2022/11/22 02:01:11;;;;;;;5.43;3.50;;;3.50;99.90;;;;;;5090538;28;20072;-84
2022/11/22 02:03:40;;;;;;;4.97;3.37;;;3.50;99.90;;;;;;5090388;28;20114;-83
2022/11/22 02:06:07;;;;;;;5.77;3.17;;;3.50;99.90;;;;;;5090414;28;20028;-83
2022/11/22 02:08:54;;;;;;;4.07;3.20;;;3.50;99.90;;;;;;5090395;28;20380;-84
2022/11/22 02:11:21;;;;;;;4.63;3.20;;;3.50;99.90;;;;;;5090536;28;20426;-83
2022/11/22 02:13:49;;;;;;;4.77;3.60;;;3.50;99.90;;;;;;5090284;28;20084;-83
2022/11/22 02:16:15;;;;;;;4.60;3.13;;;3.50;99.90;;;;;;5089945;28;20032;-83
2022/11/22 02:18:40;;;;;;;5.23;3.03;;;3.50;99.90;;;;;;5092618;28;20024;-83
2022/11/22 02:21:07;;;;;;;4.03;3.00;;;3.50;99.90;;;;;;5094308;28;20031;-83
2022/11/22 02:23:40;;;;;;;5.10;3.70;;;3.60;99.90;;;;;;5094289;28;20020;-84
2022/11/22 02:26:05;;;;;;;6.43;3.40;;;3.60;99.90;;;;;;5094319;28;20039;-83
2022/11/22 02:28:36;;;;;;;6.00;3.70;;;3.60;99.90;;;;;;5094387;28;20389;-83
2022/11/22 02:31:01;;;;;;;5.30;3.20;;;3.60;99.90;;;;;;5094223;28;20028;-83
2022/11/22 02:33:27;;;;;;;5.03;3.47;;;3.60;99.90;;;;;;5093948;28;20042;-83
2022/11/22 02:35:52;;;;;;;5.23;3.20;;;3.70;99.90;;;;;;5093660;28;20055;-83
2022/11/22 02:38:36;;;;;;;9.63;4.90;;;3.70;99.90;;;;;;5093772;28;20020;-83
2022/11/22 02:41:06;;;;;;;10.47;5.73;;;3.70;99.90;;;;;;5093907;28;20119;-83
2022/11/22 02:43:36;;;;;;;6.17;4.00;;;3.70;99.90;;;;;;5093914;28;20056;-83
2022/11/22 02:46:06;;;;;;;5.10;2.73;;;3.80;99.90;;;;;;5093732;28;20554;-83
2022/11/22 02:48:32;;;;;;;4.80;2.70;;;3.80;99.90;;;;;;5093777;28;20056;-83
2022/11/22 02:50:58;;;;;;;4.27;2.63;;;3.80;99.90;;;;;;5093940;28;20107;-83
2022/11/22 02:53:24;;;;;;;4.50;2.60;;;3.90;99.90;;;;;;5093799;28;20164;-83
2022/11/22 02:55:50;;;;;;;6.13;2.70;;;3.90;99.90;;;;;;5093559;28;20036;-83
2022/11/22 02:58:16;;;;;;;4.20;2.60;;;3.90;99.90;;;;;;5093434;28;20028;-83
2022/11/22 03:00:41;;;;;;;3.97;2.33;;;3.90;99.90;;;;;;5093711;28;20357;-83
2022/11/22 03:03:07;;;;;;;6.07;2.47;;;4.00;99.90;;;;;;5093529;28;20024;-83
2022/11/22 03:05:32;;;;;;;3.93;2.17;;;4.00;99.90;;;;;;5093531;28;20123;-83
2022/11/22 03:07:58;;;;;;;6.10;2.53;;;4.00;99.90;;;;;;5093517;28;20039;-83
2022/11/22 03:10:23;;;;;;;3.57;2.30;;;4.10;99.90;;;;;;5093028;28;20043;-83
2022/11/22 03:12:49;;;;;;;4.93;2.10;;;4.10;99.90;;;;;;5093120;28;20122;-83
2022/11/22 03:15:15;;;;;;;3.73;2.00;;;4.10;99.90;;;;;;5093047;28;20054;-83
2022/11/22 03:17:40;;;;;;;3.80;2.03;;;4.20;99.90;;;;;;5095083;28;20024;-83
2022/11/22 03:20:07;;;;;;;3.93;2.10;;;4.20;99.90;;;;;;5095313;28;20035;-83
2022/11/22 03:22:33;;;;;;;6.97;2.03;;;4.30;99.90;;;;;;5077179;28;20391;-84
2022/11/22 03:24:58;;;;;;;5.03;2.03;;;4.30;99.90;;;;;;5077173;28;20444;-82
2022/11/22 03:27:24;;;;;;;3.40;2.00;;;4.30;99.90;;;;;;5076582;28;20024;-83
2022/11/22 03:29:49;;;;;;;5.00;2.57;;;4.30;99.90;;;;;;5075558;28;20449;-83
2022/11/22 03:32:15;;;;;;;3.07;2.07;;;4.40;99.90;;;;;;5094722;28;20529;-83
2022/11/22 03:34:41;;;;;;;4.10;1.80;;;4.40;99.90;;;;;;5094278;28;20043;-83
2022/11/22 03:37:06;;;;;;;3.43;2.03;;;4.40;99.90;;;;;;5094575;28;20024;-83
2022/11/22 03:39:32;;;;;;;3.20;1.90;;;4.40;99.90;;;;;;5094450;28;20028;-83
2022/11/22 03:41:57;;;;;;;2.80;1.93;;;4.40;99.90;;;;;;5094227;28;20429;-83
2022/11/22 03:44:23;;;;;;;4.43;2.00;;;4.40;99.90;;;;;;5093986;28;20024;-83
2022/11/22 03:46:48;;;;;;;3.93;2.30;;;4.40;99.90;;;;;;5094303;28;20025;-83
2022/11/22 03:49:14;;;;;;;2.90;1.83;;;4.50;99.90;;;;;;5093773;28;20059;-83
2022/11/22 03:51:40;;;;;;;4.50;1.93;;;4.50;99.90;;;;;;5093972;28;20099;-83
2022/11/22 03:54:05;;;;;;;4.00;1.90;;;4.50;99.90;;;;;;5093879;28;20455;-83
2022/11/22 03:56:31;;;;;;;3.90;2.00;;;4.50;99.90;;;;;;5093931;28;20115;-83
2022/11/22 03:58:56;;;;;;;4.73;2.07;;;4.50;99.90;;;;;;5094043;28;20027;-83
2022/11/22 04:01:22;;;;;;;6.07;2.20;;;4.50;99.90;;;;;;5093974;28;20052;-83
2022/11/22 04:03:48;;;;;;;4.53;2.07;;;4.50;99.90;;;;;;5075889;28;20021;-83
2022/11/22 04:06:13;;;;;;;3.30;2.17;;;4.60;99.90;;;;;;5094197;28;20097;-83
2022/11/22 04:08:39;;;;;;;3.33;2.20;;;4.60;99.90;;;;;;5093907;28;20063;-83
2022/11/22 04:11:04;;;;;;;2.23;1.70;;;4.60;99.90;;;;;;5093991;28;20468;-83
2022/11/22 04:16:14;;;;;;;4.13;2.00;;;4.60;99.90;;;;;;5093507;28;20461;-83
2022/11/22 04:18:40;;;;;;;4.90;1.97;;;4.70;99.90;;;;;;5093496;28;20095;-83
2022/11/22 04:25:12;;;;;;;3.93;2.23;;;4.70;99.90;;;;;;5093568;28;20438;-83
2022/11/22 04:26:35;;;;;;;4.03;1.98;;;4.70;99.90;;;;;;5093260;28;20028;-83
2022/11/22 04:29:01;;;;;;;6.33;2.33;;;4.70;99.90;;;;;;5093217;28;20525;-83
2022/11/22 04:34:11;;;;;;;3.93;2.37;;;4.70;99.90;;;;;;5093630;28;20376;-83
2022/11/22 04:36:36;;;;;;;5.40;2.27;;;4.70;99.90;;;;;;5093251;28;20021;-83
2022/11/22 04:39:02;;;;;;;4.27;2.30;;;4.80;99.90;;;;;;5093315;28;20020;-83
2022/11/22 04:41:28;;;;;;;3.93;2.10;;;4.80;99.90;;;;;;5092768;28;20016;-83
2022/11/22 04:46:37;;;;;;;4.10;1.93;;;4.80;99.90;;;;;;5093292;28;20035;-83
2022/11/22 04:49:03;;;;;;;4.03;2.40;;;4.80;99.90;;;;;;5092367;28;20048;-83
2022/11/22 04:54:12;;;;;;;5.60;1.83;;;4.90;99.90;;;;;;5091961;28;20463;-83
2022/11/22 04:56:38;;;;;;;3.13;1.87;;;4.90;99.90;;;;;;5091499;28;20028;-83
2022/11/22 04:59:04;;;;;;;3.37;1.83;;;4.90;99.90;;;;;;5092611;28;20028;-83
2022/11/22 05:01:29;;;;;;;3.60;2.00;;;4.90;99.90;;;;;;5092556;28;20054;-83
2022/11/22 05:03:55;;;;;;;4.17;1.90;;;4.90;99.90;;;;;;5092061;28;20028;-83
2022/11/22 05:06:20;;;;;;;5.77;2.27;;;4.90;99.90;;;;;;5090983;28;20024;-83
2022/11/22 05:08:46;;;;;;;3.97;2.13;;;4.90;99.90;;;;;;5074177;28;20025;-83
2022/11/22 05:11:12;;;;;;;3.20;2.20;;;4.90;99.90;;;;;;5092473;28;20028;-83
2022/11/22 05:13:40;;;;;;;3.60;2.20;;;5.00;99.90;;;;;;5092185;28;20064;-82
2022/11/22 05:16:09;;;;;;;3.27;2.03;;;5.00;99.90;;;;;;5092419;28;20028;-82
2022/11/22 05:18:35;;;;;;;5.73;2.00;;;5.00;99.90;;;;;;5092045;28;20032;-83
2022/11/22 05:21:19;;;;;;;4.00;2.27;;;5.00;99.90;;;;;;5091986;28;20019;-83
2022/11/22 05:23:53;;;;;;;4.40;2.23;;;5.00;99.90;;;;;;5073466;28;20031;-82
2022/11/22 05:26:27;;;;;;;2.47;1.90;;;5.00;99.90;;;;;;5092059;28;20527;-81
2022/11/22 05:28:53;;;;;;;5.17;1.97;;;5.00;99.90;;;;;;5092111;28;20364;-81
2022/11/22 05:31:22;;;;;;;3.37;1.90;;;5.00;99.90;;;;;;5073302;28;20028;-81
2022/11/22 05:33:49;;;;;;;3.23;2.00;;;5.00;99.90;;;;;;5091907;28;20095;-81
2022/11/22 05:36:14;;;;;;;3.40;2.10;;;5.10;99.90;;;;;;5092202;28;20028;-81
2022/11/22 05:38:40;;;;;;;3.63;1.80;;;5.10;99.90;;;;;;5091562;28;20166;-81
2022/11/22 05:41:10;;;;;;;4.23;2.20;;;5.10;99.90;;;;;;5091892;28;20040;-81
2022/11/22 05:43:36;;;;;;;3.40;1.90;;;5.10;99.90;;;;;;5091896;28;20016;-81
2022/11/22 05:46:09;;;;;;;3.70;1.90;;;5.10;99.90;;;;;;5091778;28;20028;-81
2022/11/22 05:48:36;;;;;;;3.80;2.10;;;5.10;99.90;;;;;;5091398;28;21320;-81
2022/11/22 05:51:07;;;;;;;4.03;1.97;;;5.10;99.90;;;;;;5071530;28;20063;-81
2022/11/22 05:53:34;;;;;;;3.90;2.10;;;5.10;99.90;;;;;;5070946;28;20029;-81
2022/11/22 05:56:07;;;;;;;3.63;2.17;;;5.10;99.90;;;;;;5073731;28;20036;-81
2022/11/22 05:58:33;;;;;;;5.63;2.20;;;5.10;99.90;;;;;;5091607;28;20039;-80
2022/11/22 06:01:20;;;;;;;4.70;2.23;;;5.10;99.90;;;;;;5091890;28;20050;-80
2022/11/22 06:03:46;;;;;;;4.83;2.37;;;5.10;99.90;;;;;;5089720;28;20529;-80
2022/11/22 06:06:12;;;;;;;3.97;2.00;;;5.10;99.90;;;;;;5092278;28;20384;-81
2022/11/22 06:08:43;;;;;;;3.30;2.30;;;5.10;99.90;;;;;;5092196;28;20047;-81
2022/11/22 06:11:14;;;;;;;4.87;2.80;;;5.10;99.90;;;;;;5092193;28;20864;-80
2022/11/22 06:13:41;;;;;;;4.97;2.90;;;5.10;99.90;;;;;;5091865;28;20051;-81
2022/11/22 06:16:07;;;;;;;5.47;2.70;;;5.10;99.90;;;;;;5091154;28;20020;-80
2022/11/22 06:18:33;;;;;;;10.30;3.33;;;5.10;99.90;;;;;;5092035;28;20052;-80
2022/11/22 06:21:01;;;;;;;5.07;2.83;;;5.10;99.90;;;;;;5091910;28;20020;-80
2022/11/22 06:23:27;;;;;;;4.97;2.90;;;5.10;99.90;;;;;;5091884;28;20147;-81
2022/11/22 06:26:20;;;;;;;5.50;3.10;;;5.20;99.90;;;;;;5091966;28;20020;-81
2022/11/22 06:28:47;;;;;;;5.13;2.90;;;5.20;99.90;;;;;;5091293;28;20032;-80
2022/11/22 06:31:15;;;;;;;6.63;2.90;;;5.20;99.90;;;;;;5092134;28;20028;-81
2022/11/22 06:33:41;;;;;;;7.13;3.40;;;5.20;99.90;;;;;;5091895;28;20027;-80
2022/11/22 06:36:09;;;;;;;4.20;2.83;;;5.20;99.90;;;;;;5091840;28;20081;-81
2022/11/22 06:38:35;;;;;;;8.87;3.93;;;5.20;99.90;;;;;;5091917;28;20028;-81
2022/11/22 06:41:03;;;;;;;5.37;2.83;;;5.20;99.90;;;;;;5091905;28;20429;-80
2022/11/22 06:43:30;;;;;;;6.90;3.47;;;5.20;99.90;;;;;;5086741;28;20095;-81
2022/11/22 06:45:57;;;;;;;7.37;3.70;;;5.20;99.90;;;;;;5080243;28;20040;-80
2022/11/22 06:48:23;;;;;;;6.33;3.30;;;5.20;99.90;;;;;;5083927;28;20048;-81
2022/11/22 06:50:48;;;;;;;5.00;3.20;;;5.20;99.90;;;;;;5091729;28;20024;-80
2022/11/22 06:53:14;;;;;;;5.13;3.30;;;5.20;99.90;;;;;;5073782;28;20033;-81
2022/11/22 06:55:40;;;;;;;6.60;3.50;;;5.20;99.90;;;;;;5071345;28;20024;-80
2022/11/22 06:58:05;;;;;;;5.93;3.63;;;5.20;99.90;;;;;;5071473;28;20082;-80
2022/11/22 07:00:31;;;;;;;4.80;3.60;;;5.20;99.90;;;;;;5071782;28;20039;-80
2022/11/22 07:02:56;;;;;;;6.80;4.50;;;5.20;99.90;;;;;;5071664;28;20031;-81
2022/11/22 07:05:22;;;;;;;6.73;4.13;;;5.20;99.90;;;;;;5074028;28;20485;-80
2022/11/22 07:07:47;;;;;;;7.13;5.00;;;5.20;99.90;;;;;;5074903;28;20035;-81
2022/11/22 07:10:13;;;;;;;7.53;4.67;;;5.20;99.90;;;;;;5074718;28;20311;-80
2022/11/22 07:12:39;;;;;;;8.03;4.23;;;5.20;99.90;;;;;;5074796;28;20538;-80
2022/11/22 07:15:05;;;;;;;7.53;4.67;;;5.20;99.90;;;;;;5074450;28;20024;-82
2022/11/22 07:17:30;;;;;;;7.03;4.73;;;5.30;99.90;;;;;;5080695;28;20153;-82
2022/11/22 07:19:56;;;;;;;7.53;4.20;;;5.30;99.90;;;;;;5094497;28;20098;-82
2022/11/22 07:22:22;;;;;;;7.07;4.17;;;5.30;99.90;;;;;;5094816;28;20030;-82
2022/11/22 07:24:48;;;;;;;5.57;3.93;;;5.30;99.90;;;;;;5094317;28;20483;-82
2022/11/22 07:27:13;;;;;;;10.13;4.60;;;5.30;99.90;;;;;;5094285;28;20024;-82
2022/11/22 07:29:39;;;;;;;8.20;4.60;;;5.30;99.90;;;;;;5094350;28;20021;-82
2022/11/22 07:32:04;;;;;;;7.47;4.93;;;5.30;99.90;;;;;;5094346;28;20437;-83
2022/11/22 07:34:30;;;;;;;8.50;4.67;;;5.40;99.90;;;;;;5094384;28;20016;-82
2022/11/22 07:36:55;;;;;;;10.63;5.30;;;5.40;99.90;;;;;;5094140;28;20095;-82
2022/11/22 07:39:21;;;;;;;10.47;5.53;;;5.40;99.90;;;;;;5094239;28;20050;-82
2022/11/22 07:41:47;;;;;;;11.07;5.03;;;5.40;99.90;;;;;;5095232;28;20024;-82
2022/11/22 07:44:12;;;;;;;8.63;5.20;;;5.40;99.90;;;;;;5094546;28;20047;-82
2022/11/22 07:46:38;;;;;;;11.63;5.17;;;5.50;99.90;;;;;;5094152;28;20187;-82
2022/11/22 07:49:03;;;;;;;7.40;4.90;;;5.50;99.90;;;;;;5093140;28;20082;-82
2022/11/22 07:51:29;;;;;;;9.23;5.10;;;5.50;99.90;;;;;;5092851;28;20469;-82
2022/11/22 07:53:56;;;;;;;9.40;5.23;;;5.60;99.90;;;;;;5093317;28;20415;-83
2022/11/22 07:56:22;;;;;;;13.80;5.57;;;5.60;99.90;;;;;;5093134;28;20062;-82
2022/11/22 07:58:47;;;;;;;7.83;5.40;;;5.60;99.90;;;;;;5092730;28;20020;-82
2022/11/22 08:01:16;;;;;;;10.50;5.80;;;5.60;99.90;;;;;;5092716;28;20092;-82
2022/11/22 08:03:42;;;;;;;17.70;6.27;;;5.70;99.90;;;;;;5092939;28;20020;-82
2022/11/22 08:06:09;;;;;;;12.20;5.50;;;5.70;99.90;;;;;;5093163;28;20038;-82
2022/11/22 08:08:35;;;;;;;11.87;5.70;;;5.70;99.90;;;;;;5093184;28;20039;-82
2022/11/22 08:11:01;;;;;;;11.17;5.50;;;5.70;99.90;;;;;;5093399;28;20039;-82
2022/11/22 08:13:28;;;;;;;8.17;5.53;;;5.70;99.90;;;;;;5093679;28;20445;-82
2022/11/22 08:15:54;;;;;;;11.33;5.83;;;5.70;99.90;;;;;;5092906;28;20342;-82
2022/11/22 08:18:20;;;;;;;7.73;5.67;;;5.80;99.90;;;;;;5093359;28;20031;-82
2022/11/22 08:20:45;;;;;;;10.23;5.67;;;5.80;99.90;;;;;;5093364;28;20494;-82
2022/11/22 08:23:11;;;;;;;12.53;5.60;;;5.80;99.90;;;;;;5093284;28;20024;-82
2022/11/22 08:25:36;;;;;;;10.00;6.20;;;5.80;99.90;;;;;;5093224;28;20473;-83
2022/11/22 08:28:02;;;;;;;10.93;5.77;;;5.80;99.90;;;;;;5093232;28;20042;-82
2022/11/22 08:30:28;;;;;;;9.00;5.23;;;5.80;99.90;;;;;;5093145;28;20102;-83
2022/11/22 08:32:54;;;;;;;8.27;5.60;;;5.80;99.90;;;;;;5093485;28;20032;-83
2022/11/22 08:35:20;;;;;;;10.87;5.60;;;5.80;99.90;;;;;;5092860;28;20028;-82
2022/11/22 08:37:45;;;;;;;12.13;5.83;;;5.80;99.90;;;;;;5074644;28;20522;-82
2022/11/22 08:40:11;;;;;;;11.37;6.10;;;5.80;99.90;;;;;;5092914;28;20028;-82
2022/11/22 08:42:37;;;;;;;7.73;5.83;;;5.90;99.90;;;;;;5092669;28;20028;-82
2022/11/22 08:45:04;;;;;;;11.90;6.23;;;5.90;99.90;;;;;;5092247;28;20024;-81
2022/11/22 08:47:29;;;;;;;12.47;5.63;;;5.90;99.90;;;;;;5091698;28;20036;-81
2022/11/22 08:49:55;;;;;;;8.40;5.30;;;5.90;99.90;;;;;;5089314;28;20085;-81
2022/11/22 08:52:21;;;;;;;9.10;5.30;;;5.90;99.90;;;;;;5086095;28;20036;-82
2022/11/22 08:54:49;;;;;;;7.63;5.33;;;5.90;99.90;;;;;;5083022;28;20089;-81
2022/11/22 08:57:15;;;;;;;10.63;5.13;;;6.00;99.90;;;;;;5086060;28;20418;-82
2022/11/22 08:59:40;;;;;;;13.00;5.63;;;6.00;99.90;;;;;;5085546;28;20032;-82
2022/11/22 09:02:06;;;;;;;9.40;5.50;;;6.00;99.90;;;;;;5085395;28;20130;-82
2022/11/22 09:04:31;;;;;;;10.83;5.17;;;6.00;99.90;;;;;;5084735;28;20051;-82
2022/11/22 09:06:59;;;;;;;8.07;4.67;;;6.10;99.90;;;;;;5085346;28;20035;-82
2022/11/22 09:09:24;;;;;;;8.47;5.13;;;6.20;99.90;;;;;;5087286;28;20064;-81
2022/11/22 09:11:50;;;;;;;7.47;4.77;;;6.20;99.90;;;;;;5088575;28;20055;-81
2022/11/22 09:14:15;;;;;;;13.37;5.30;;;6.20;99.90;;;;;;5087373;28;20126;-81
2022/11/22 09:16:41;;;;;;;7.80;4.87;;;6.20;99.90;;;;;;5070333;28;20036;-81
2022/11/22 09:19:06;;;;;;;8.93;5.67;;;6.30;99.90;;;;;;5088144;28;20024;-81
2022/11/22 09:21:32;;;;;;;10.40;4.97;;;6.30;99.90;;;;;;5087814;28;20741;-81
2022/11/22 09:23:58;;;;;;;8.63;5.00;;;6.30;99.90;;;;;;5087130;28;20448;-81
2022/11/22 09:26:24;;;;;;;9.37;4.90;;;6.30;99.90;;;;;;5088472;28;20028;-81
2022/11/22 09:28:50;;;;;;;12.17;5.13;;;6.40;99.90;;;;;;5086776;28;20032;-82
2022/11/22 09:31:18;;;;;;;15.27;5.30;;;6.40;99.90;;;;;;5087296;28;20077;-82
2022/11/22 09:33:45;;;;;;;11.43;5.33;;;6.40;99.90;;;;;;5086551;28;20082;-82
2022/11/22 09:36:16;;;;;;;9.63;4.83;;;6.40;99.90;;;;;;5087509;28;20032;-81
2022/11/22 09:38:42;;;;;;;12.70;4.90;;;6.40;99.90;;;;;;5089445;28;20020;-81
2022/11/22 09:41:21;;;;;;;15.10;5.33;;;6.50;99.90;;;;;;5092658;28;20012;-81
2022/11/22 09:44:08;;;;;;;10.23;4.70;;;6.50;99.90;;;;;;5091064;28;20166;-81
2022/11/22 09:46:53;;;;;;;8.73;5.00;;;6.50;99.90;;;;;;5088626;28;20028;-81
2022/11/22 09:49:28;;;;;;;10.82;5.00;;;6.50;99.90;;;;;;5087439;28;20076;-81
2022/11/22 09:52:17;;;;;;;10.33;4.63;;;6.50;99.90;;;;;;5085524;28;20169;-82
2022/11/22 09:54:54;;;;;;;9.27;4.40;;;6.50;99.90;;;;;;5084650;28;20492;-82
2022/11/22 09:57:51;;;;;;;8.63;4.67;;;6.40;99.90;;;;;;5084958;28;20074;-82
2022/11/22 10:00:24;;;;;;;11.63;4.43;;;6.40;99.90;;;;;;5086942;28;20043;-84
2022/11/22 10:03:09;;;;;;;7.80;3.57;;;6.40;99.90;;;;;;5087131;28;20024;-82
2022/11/22 10:05:52;;;;;;;11.43;4.68;;;6.40;99.90;;;;;;5084508;28;20032;-83
2022/11/22 10:08:36;;;;;;;10.83;4.57;;;6.40;99.90;;;;;;5085545;28;20020;-82
2022/11/22 10:11:09;;;;;;;10.83;2.97;;;6.40;99.90;;;;;;5086323;28;20046;-83
2022/11/22 10:13:42;;;;;;;6.87;2.70;;;6.40;99.90;;;;;;5086468;28;20055;-82
2022/11/22 10:16:22;;;;;;;10.23;3.13;;;6.40;99.90;;;;;;5085335;28;20028;-82
2022/11/22 10:19:10;;;;;;;8.23;2.73;;;6.40;99.90;;;;;;5086545;28;20031;-83
2022/11/22 10:21:36;;;;;;;9.50;2.50;;;6.50;99.90;;;;;;5086535;28;20201;-83
2022/11/22 10:24:02;;;;;;;12.30;2.83;;;6.50;99.90;;;;;;5086632;28;20473;-83
2022/11/22 10:26:33;;;;;;;9.30;2.60;;;6.50;99.90;;;;;;5085168;28;20019;-81
2022/11/22 10:29:07;;;;;;;7.67;2.77;;;6.50;99.90;;;;;;5087159;28;20028;-81
2022/11/22 10:31:36;;;;;;;9.63;3.40;;;6.50;99.90;;;;;;5086937;28;20690;-81
2022/11/22 10:34:32;;;;;;;10.97;4.27;;;6.60;99.90;;;;;;5087102;28;20039;-81
2022/11/22 10:37:08;;;;;;;16.30;5.50;;;6.70;99.90;;;;;;5091183;28;20032;-81
2022/11/22 10:39:57;;;;;;;10.73;3.20;;;6.70;99.90;;;;;;5093472;28;20047;-81
2022/11/22 10:42:45;;;;;;;8.17;2.70;;;6.70;99.90;;;;;;5095435;28;20399;-82
2022/11/22 10:45:23;;;;;;;6.20;2.27;;;6.70;99.90;;;;;;5095376;28;20380;-81
2022/11/22 10:48:12;;;;;;;8.60;2.33;;;6.80;99.90;;;;;;5095371;28;20063;-81
2022/11/22 10:50:58;;;;;;;8.33;2.40;;;6.80;99.90;;;;;;5093958;28;20028;-81
2022/11/22 10:53:38;;;;;;;6.80;1.90;;;6.80;99.90;;;;;;5075018;28;20021;-82
2022/11/22 10:56:15;;;;;;;11.63;2.30;;;6.90;99.90;;;;;;5074966;28;20055;-82
2022/11/22 10:59:24;;;;;;;6.37;2.10;;;6.90;99.90;;;;;;5074603;28;20020;-82
2022/11/22 11:02:09;;;;;;;11.80;1.87;;;6.90;99.90;;;;;;5063562;28;20041;-82
2022/11/22 11:04:38;;;;;;;7.23;2.30;;;7.00;99.90;;;;;;5074442;28;20092;-82
2022/11/22 11:07:10;;;;;;;9.70;1.97;;;7.00;99.90;;;;;;5083294;28;20020;-83
2022/11/22 11:09:37;;;;;;;10.07;2.40;;;7.00;99.90;;;;;;5088025;28;20039;-82
2022/11/22 11:12:12;;;;;;;6.50;2.70;;;7.10;99.90;;;;;;5071714;28;20034;-82
2022/11/22 11:14:47;;;;;;;13.13;4.50;;;7.10;99.90;;;;;;5088403;28;20477;-82
2022/11/22 11:17:17;;;;;;;9.15;3.50;;;7.10;99.90;;;;;;5087548;28;20024;-83
2022/11/22 11:19:46;;;;;;;11.97;3.10;;;7.00;99.90;;;;;;5090085;28;20016;-82
2022/11/22 11:22:20;;;;;;;13.13;3.23;;;7.00;99.90;;;;;;5089557;28;20099;-82
2022/11/22 11:24:46;;;;;;;15.03;3.63;;;7.00;99.90;;;;;;5089997;28;20046;-83
2022/11/22 11:27:13;;;;;;;8.23;2.70;;;6.90;99.90;;;;;;5088365;28;20028;-82
2022/11/22 11:29:42;;;;;;;10.10;2.20;;;6.70;99.90;;;;;;5089240;28;20028;-82
2022/11/22 11:32:19;;;;;;;7.93;2.13;;;6.60;99.90;;;;;;5087353;28;20020;-82
2022/11/22 11:35:03;;;;;;;11.83;2.33;;;6.60;99.90;;;;;;5088992;28;20107;-82
2022/11/22 11:37:37;;;;;;;6.67;2.40;;;6.50;99.90;;;;;;5088275;28;20556;-82
2022/11/22 11:40:04;;;;;;;8.00;1.97;;;6.50;99.90;;;;;;5089320;28;20069;-82
2022/11/22 11:42:33;;;;;;;9.93;2.80;;;6.50;99.90;;;;;;5089768;28;20028;-82
2022/11/22 11:45:24;;;;;;;11.17;2.47;;;6.50;99.90;;;;;;5089507;28;20060;-82
2022/11/22 11:47:50;;;;;;;6.27;1.80;;;6.40;99.90;;;;;;5087650;28;20492;-82
2022/11/22 11:50:26;;;;;;;7.67;2.07;;;6.40;99.90;;;;;;5087721;28;20094;-82
2022/11/22 11:53:02;;;;;;;11.43;3.00;;;6.50;99.90;;;;;;5089012;28;20035;-82
2022/11/22 11:55:34;;;;;;;8.67;2.13;;;6.50;99.90;;;;;;5087078;28;20511;-82
2022/11/22 11:58:02;;;;;;;9.97;2.40;;;6.60;99.90;;;;;;5087915;28;20028;-82
2022/11/22 12:00:36;;;;;;;10.17;2.57;;;6.60;99.90;;;;;;5089328;28;20024;-82
2022/11/22 12:03:07;;;;;;;7.13;2.10;;;6.60;99.90;;;;;;5089102;28;20406;-82
2022/11/22 12:05:33;;;;;;;7.63;2.10;;;6.60;99.90;;;;;;5088938;28;20066;-82
2022/11/22 12:08:00;;;;;;;12.10;2.80;;;6.70;99.90;;;;;;5087794;28;20059;-82
2022/11/22 12:10:56;;;;;;;7.30;2.07;;;6.60;99.90;;;;;;5089171;28;20032;-82
2022/11/22 12:13:32;;;;;;;6.90;2.43;;;6.60;99.90;;;;;;5088386;28;20110;-82
2022/11/22 12:16:19;;;;;;;7.60;1.87;;;6.60;99.90;;;;;;5088154;28;20036;-82
2022/11/22 12:19:13;;;;;;;6.13;2.33;;;6.50;99.90;;;;;;5087934;28;20459;-82
2022/11/22 12:21:48;;;;;;;7.47;2.00;;;6.50;99.90;;;;;;5087044;28;20368;-82
2022/11/22 12:24:32;;;;;;;8.80;2.65;;;6.50;99.90;;;;;;5087678;28;20026;-82
2022/11/22 12:26:58;;;;;;;8.03;2.40;;;6.40;99.90;;;;;;5087746;28;20102;-82
2022/11/22 12:29:24;;;;;;;9.87;2.27;;;6.40;99.90;;;;;;5088733;28;20024;-82
2022/11/22 12:32:11;;;;;;;6.27;2.20;;;6.40;99.90;;;;;;5087904;28;20093;-82
2022/11/22 12:34:49;;;;;;;7.37;2.20;;;6.40;99.90;;;;;;5089057;28;20024;-82
2022/11/22 12:37:27;;;;;;;7.63;2.27;;;6.40;99.90;;;;;;5088903;28;20035;-82
2022/11/22 12:39:57;;;;;;;8.50;2.53;;;6.40;99.90;;;;;;5089587;28;20421;-83
2022/11/22 12:42:39;;;;;;;7.67;1.97;;;6.30;99.90;;;;;;5089070;28;20024;-83
2022/11/22 12:45:10;;;;;;;6.30;2.30;;;6.40;99.90;;;;;;5088158;28;20024;-82
2022/11/22 12:47:42;;;;;;;9.63;2.57;;;6.40;99.90;;;;;;5085067;28;20067;-82
2022/11/22 12:50:17;;;;;;;7.27;2.53;;;6.40;99.90;;;;;;5088232;28;20114;-82
2022/11/22 12:52:50;;;;;;;7.30;2.85;;;6.40;99.90;;;;;;5086765;28;20380;-82
2022/11/22 12:55:23;;;;;;;7.53;2.00;;;6.40;99.90;;;;;;5088254;28;20036;-82
2022/11/22 12:57:55;;;;;;;7.87;2.13;;;6.40;99.90;;;;;;5068259;28;21501;-82
2022/11/22 13:00:23;;;;;;;8.37;2.30;;;6.40;99.90;;;;;;5086751;28;20024;-82
2022/11/22 13:03:08;;;;;;;6.13;2.13;;;6.50;99.90;;;;;;5086126;28;20488;-82
2022/11/22 13:05:46;;;;;;;7.28;2.20;;;6.50;99.90;;;;;;5086632;28;20024;-82
2022/11/22 13:08:49;;;;;;;6.60;2.30;;;6.60;99.90;;;;;;5071127;28;20064;-82
2022/11/22 13:11:28;;;;;;;12.43;5.03;;;6.60;99.90;;;;;;5070325;28;20029;-82
2022/11/22 13:14:01;;;;;;;12.83;4.40;;;6.60;99.90;;;;;;5073130;28;20040;-82
2022/11/22 13:16:27;;;;;;;18.40;9.60;;;6.70;99.90;;;;;;5091252;28;20115;-83
2022/11/22 13:19:00;;;;;;;4.73;3.20;;;6.70;99.90;;;;;;5091101;28;20095;-83
2022/11/22 13:21:47;;;;;;;8.73;3.63;;;6.70;99.90;;;;;;5091169;28;20027;-83